sensor_id;sensor_type;location;lat;lon;timestamp;temperature;humidity
14210;DHT22;7188;56.070;12.698;2024-02-14T00:00:09;5.30;99.90
14210;DHT22;7188;56.070;12.698;2024-02-14T00:02:37;5.20;99.90
14210;DHT22;7188;56.070;12.698;2024-02-14T00:05:03;5.20;99.90
14210;DHT22;7188;56.070;12.698;2024-02-14T00:07:29;5.20;99.90
14210;DHT22;7188;56.070;12.698;2024-02-14T00:09:55;5.20;99.90
14210;DHT22;7188;56.070;12.698;2024-02-14T00:12:21;5.20;99.90
14210;DHT22;7188;56.070;12.698;2024-02-14T00:14:46;5.20;99.90
14210;DHT22;7188;56.070;12.698;2024-02-14T00:17:12;5.20;99.90
14210;DHT22;7188;56.070;12.698;2024-02-14T00:19:38;5.20;99.90
14210;DHT22;7188;56.070;12.698;2024-02-14T00:22:03;5.10;99.90
14210;DHT22;7188;56.070;12.698;2024-02-14T00:24:38;5.20;99.90
14210;DHT22;7188;56.070;12.698;2024-02-14T00:27:04;5.20;99.90
14210;DHT22;7188;56.070;12.698;2024-02-14T00:29:29;5.20;99.90
14210;DHT22;7188;56.070;12.698;2024-02-14T00:31:55;5.20;99.90
14210;DHT22;7188;56.070;12.698;2024-02-14T00:34:21;5.20;99.90
14210;DHT22;7188;56.070;12.698;2024-02-14T00:36:46;5.20;99.90
14210;DHT22;7188;56.070;12.698;2024-02-14T00:39:12;5.30;99.90
14210;DHT22;7188;56.070;12.698;2024-02-14T00:41:38;5.20;99.90
14210;DHT22;7188;56.070;12.698;2024-02-14T00:44:03;5.30;99.90
14210;DHT22;7188;56.070;12.698;2024-02-14T00:46:41;5.40;99.90
14210;DHT22;7188;56.070;12.698;2024-02-14T00:49:07;5.50;99.90
14210;DHT22;7188;56.070;12.698;2024-02-14T00:51:32;5.50;99.90
14210;DHT22;7188;56.070;12.698;2024-02-14T00:53:58;5.40;99.90
14210;DHT22;7188;56.070;12.698;2024-02-14T00:56:24;5.30;99.90
14210;DHT22;7188;56.070;12.698;2024-02-14T00:58:50;5.30;99.90
14210;DHT22;7188;56.070;12.698;2024-02-14T01:01:15;5.50;99.90
14210;DHT22;7188;56.070;12.698;2024-02-14T01:03:41;5.40;99.90
14210;DHT22;7188;56.070;12.698;2024-02-14T01:06:06;5.30;99.90
14210;DHT22;7188;56.070;12.698;2024-02-14T01:08:32;5.30;99.90
14210;DHT22;7188;56.070;12.698;2024-02-14T01:10:59;5.20;99.90
14210;DHT22;7188;56.070;12.698;2024-02-14T01:13:25;5.20;99.90
14210;DHT22;7188;56.070;12.698;2024-02-14T01:15:51;5.10;99.90
14210;DHT22;7188;56.070;12.698;2024-02-14T01:18:17;5.10;99.90
14210;DHT22;7188;56.070;12.698;2024-02-14T01:20:42;5.20;99.90
14210;DHT22;7188;56.070;12.698;2024-02-14T01:23:08;5.20;99.90
14210;DHT22;7188;56.070;12.698;2024-02-14T01:25:35;5.10;99.90
14210;DHT22;7188;56.070;12.698;2024-02-14T01:28:01;5.10;99.90
14210;DHT22;7188;56.070;12.698;2024-02-14T01:30:26;5.20;99.90
14210;DHT22;7188;56.070;12.698;2024-02-14T01:32:52;5.20;99.90
14210;DHT22;7188;56.070;12.698;2024-02-14T01:35:18;5.10;99.90
14210;DHT22;7188;56.070;12.698;2024-02-14T01:37:44;5.10;99.90
14210;DHT22;7188;56.070;12.698;2024-02-14T01:40:11;5.20;99.90
14210;DHT22;7188;56.070;12.698;2024-02-14T01:42:36;5.20;99.90
14210;DHT22;7188;56.070;12.698;2024-02-14T01:45:02;5.30;99.90
14210;DHT22;7188;56.070;12.698;2024-02-14T01:47:28;5.30;99.90
14210;DHT22;7188;56.070;12.698;2024-02-14T01:49:54;5.30;99.90
14210;DHT22;7188;56.070;12.698;2024-02-14T01:52:20;5.30;99.90
14210;DHT22;7188;56.070;12.698;2024-02-14T01:54:47;5.30;99.90
14210;DHT22;7188;56.070;12.698;2024-02-14T01:57:14;5.20;99.90
14210;DHT22;7188;56.070;12.698;2024-02-14T01:59:40;5.20;99.90
14210;DHT22;7188;56.070;12.698;2024-02-14T02:02:05;5.20;99.90
14210;DHT22;7188;56.070;12.698;2024-02-14T02:04:33;5.30;99.90
14210;DHT22;7188;56.070;12.698;2024-02-14T02:07:00;5.30;99.90
14210;DHT22;7188;56.070;12.698;2024-02-14T02:09:25;5.30;99.90
14210;DHT22;7188;56.070;12.698;2024-02-14T02:12:26;5.30;99.90
14210;DHT22;7188;56.070;12.698;2024-02-14T02:14:53;5.40;99.90
14210;DHT22;7188;56.070;12.698;2024-02-14T02:17:19;5.30;99.90
14210;DHT22;7188;56.070;12.698;2024-02-14T02:19:44;5.30;99.90
14210;DHT22;7188;56.070;12.698;2024-02-14T02:22:10;5.40;99.90
14210;DHT22;7188;56.070;12.698;2024-02-14T02:24:35;5.40;99.90
14210;DHT22;7188;56.070;12.698;2024-02-14T02:27:19;5.30;99.90
14210;DHT22;7188;56.070;12.698;2024-02-14T02:29:45;5.30;99.90
14210;DHT22;7188;56.070;12.698;2024-02-14T02:32:11;5.20;99.90
14210;DHT22;7188;56.070;12.698;2024-02-14T02:34:37;5.20;99.90
14210;DHT22;7188;56.070;12.698;2024-02-14T02:37:05;5.30;99.90
14210;DHT22;7188;56.070;12.698;2024-02-14T02:39:34;5.30;99.90
14210;DHT22;7188;56.070;12.698;2024-02-14T02:42:04;5.30;99.90
14210;DHT22;7188;56.070;12.698;2024-02-14T02:44:31;5.30;99.90
14210;DHT22;7188;56.070;12.698;2024-02-14T02:46:57;5.40;99.90
14210;DHT22;7188;56.070;12.698;2024-02-14T02:49:22;5.40;99.90
14210;DHT22;7188;56.070;12.698;2024-02-14T02:51:48;5.50;99.90
14210;DHT22;7188;56.070;12.698;2024-02-14T02:54:14;5.50;99.90
14210;DHT22;7188;56.070;12.698;2024-02-14T02:56:39;5.40;99.90
14210;DHT22;7188;56.070;12.698;2024-02-14T02:59:06;5.40;99.90
14210;DHT22;7188;56.070;12.698;2024-02-14T03:01:36;5.50;99.90
14210;DHT22;7188;56.070;12.698;2024-02-14T03:04:02;5.40;99.90
14210;DHT22;7188;56.070;12.698;2024-02-14T03:06:27;5.40;99.90
14210;DHT22;7188;56.070;12.698;2024-02-14T03:08:53;5.40;99.90
14210;DHT22;7188;56.070;12.698;2024-02-14T03:11:22;5.50;99.90
14210;DHT22;7188;56.070;12.698;2024-02-14T03:13:47;5.50;99.90
14210;DHT22;7188;56.070;12.698;2024-02-14T03:16:14;5.40;99.90
14210;DHT22;7188;56.070;12.698;2024-02-14T03:18:40;5.40;99.90
14210;DHT22;7188;56.070;12.698;2024-02-14T03:21:06;5.40;99.90
14210;DHT22;7188;56.070;12.698;2024-02-14T03:23:32;5.40;99.90
14210;DHT22;7188;56.070;12.698;2024-02-14T03:25:57;5.50;99.90
14210;DHT22;7188;56.070;12.698;2024-02-14T03:28:23;5.50;99.90
14210;DHT22;7188;56.070;12.698;2024-02-14T03:30:50;5.50;99.90
14210;DHT22;7188;56.070;12.698;2024-02-14T03:33:16;5.50;99.90
14210;DHT22;7188;56.070;12.698;2024-02-14T03:35:41;5.60;99.90
14210;DHT22;7188;56.070;12.698;2024-02-14T03:38:07;5.50;99.90
14210;DHT22;7188;56.070;12.698;2024-02-14T03:40:36;5.60;99.90
14210;DHT22;7188;56.070;12.698;2024-02-14T03:43:04;5.60;99.90
14210;DHT22;7188;56.070;12.698;2024-02-14T03:45:29;5.60;99.90
14210;DHT22;7188;56.070;12.698;2024-02-14T03:47:55;5.70;99.90
14210;DHT22;7188;56.070;12.698;2024-02-14T03:50:22;5.60;99.90
14210;DHT22;7188;56.070;12.698;2024-02-14T03:52:48;5.70;99.90
14210;DHT22;7188;56.070;12.698;2024-02-14T03:55:20;5.70;99.90
14210;DHT22;7188;56.070;12.698;2024-02-14T03:57:48;5.80;99.90
14210;DHT22;7188;56.070;12.698;2024-02-14T04:00:14;5.70;99.90
14210;DHT22;7188;56.070;12.698;2024-02-14T04:02:40;5.60;99.90
14210;DHT22;7188;56.070;12.698;2024-02-14T04:05:06;5.50;99.90
14210;DHT22;7188;56.070;12.698;2024-02-14T04:07:32;5.40;99.90
14210;DHT22;7188;56.070;12.698;2024-02-14T04:09:59;5.30;99.90
14210;DHT22;7188;56.070;12.698;2024-02-14T04:12:25;5.30;99.90
14210;DHT22;7188;56.070;12.698;2024-02-14T04:14:51;5.30;99.90
14210;DHT22;7188;56.070;12.698;2024-02-14T04:17:16;5.30;99.90
14210;DHT22;7188;56.070;12.698;2024-02-14T04:19:42;5.30;99.90
14210;DHT22;7188;56.070;12.698;2024-02-14T04:22:08;5.30;99.90
14210;DHT22;7188;56.070;12.698;2024-02-14T04:24:34;5.30;99.90
14210;DHT22;7188;56.070;12.698;2024-02-14T04:27:00;5.30;99.90
14210;DHT22;7188;56.070;12.698;2024-02-14T04:29:28;5.20;99.90
14210;DHT22;7188;56.070;12.698;2024-02-14T04:31:56;5.20;99.90
14210;DHT22;7188;56.070;12.698;2024-02-14T04:34:21;5.20;99.90
14210;DHT22;7188;56.070;12.698;2024-02-14T04:36:47;5.10;99.90
14210;DHT22;7188;56.070;12.698;2024-02-14T04:39:12;5.30;99.90
14210;DHT22;7188;56.070;12.698;2024-02-14T04:41:38;5.40;99.90
14210;DHT22;7188;56.070;12.698;2024-02-14T04:44:04;5.30;99.90
14210;DHT22;7188;56.070;12.698;2024-02-14T04:46:33;5.30;99.90
14210;DHT22;7188;56.070;12.698;2024-02-14T04:49:00;5.30;99.90
14210;DHT22;7188;56.070;12.698;2024-02-14T04:51:31;5.30;99.90
14210;DHT22;7188;56.070;12.698;2024-02-14T04:53:57;5.30;99.90
14210;DHT22;7188;56.070;12.698;2024-02-14T04:56:26;5.20;99.90
14210;DHT22;7188;56.070;12.698;2024-02-14T04:58:55;5.20;99.90
14210;DHT22;7188;56.070;12.698;2024-02-14T05:01:21;5.20;99.90
14210;DHT22;7188;56.070;12.698;2024-02-14T05:03:47;5.10;99.90
14210;DHT22;7188;56.070;12.698;2024-02-14T05:06:14;5.10;99.90
14210;DHT22;7188;56.070;12.698;2024-02-14T05:08:39;5.10;99.90
14210;DHT22;7188;56.070;12.698;2024-02-14T05:11:05;5.10;99.90
14210;DHT22;7188;56.070;12.698;2024-02-14T05:13:32;5.20;99.90
14210;DHT22;7188;56.070;12.698;2024-02-14T05:15:58;5.10;99.90
14210;DHT22;7188;56.070;12.698;2024-02-14T05:18:23;5.10;99.90
14210;DHT22;7188;56.070;12.698;2024-02-14T05:20:49;5.10;99.90
14210;DHT22;7188;56.070;12.698;2024-02-14T05:23:15;5.10;99.90
14210;DHT22;7188;56.070;12.698;2024-02-14T05:25:43;5.10;99.90
14210;DHT22;7188;56.070;12.698;2024-02-14T05:28:09;5.10;99.90
14210;DHT22;7188;56.070;12.698;2024-02-14T05:30:39;5.10;99.90
14210;DHT22;7188;56.070;12.698;2024-02-14T05:33:05;5.10;99.90
14210;DHT22;7188;56.070;12.698;2024-02-14T05:35:30;5.10;99.90
14210;DHT22;7188;56.070;12.698;2024-02-14T05:37:56;5.10;99.90
14210;DHT22;7188;56.070;12.698;2024-02-14T05:40:22;5.10;99.90
14210;DHT22;7188;56.070;12.698;2024-02-14T05:42:47;5.30;99.90
14210;DHT22;7188;56.070;12.698;2024-02-14T05:45:13;5.30;99.90
14210;DHT22;7188;56.070;12.698;2024-02-14T05:47:39;5.20;99.90
14210;DHT22;7188;56.070;12.698;2024-02-14T05:50:05;5.20;99.90
14210;DHT22;7188;56.070;12.698;2024-02-14T05:52:31;5.10;99.90
14210;DHT22;7188;56.070;12.698;2024-02-14T05:54:57;5.10;99.90
14210;DHT22;7188;56.070;12.698;2024-02-14T05:57:22;5.10;99.90
14210;DHT22;7188;56.070;12.698;2024-02-14T05:59:48;5.10;99.90
14210;DHT22;7188;56.070;12.698;2024-02-14T06:02:14;5.10;99.90
14210;DHT22;7188;56.070;12.698;2024-02-14T06:04:39;5.10;99.90
14210;DHT22;7188;56.070;12.698;2024-02-14T06:07:05;5.10;99.90
14210;DHT22;7188;56.070;12.698;2024-02-14T06:09:32;5.10;99.90
14210;DHT22;7188;56.070;12.698;2024-02-14T06:11:58;5.00;99.90
14210;DHT22;7188;56.070;12.698;2024-02-14T06:14:23;5.00;99.90
14210;DHT22;7188;56.070;12.698;2024-02-14T06:16:49;5.00;99.90
14210;DHT22;7188;56.070;12.698;2024-02-14T06:19:14;5.00;99.90
14210;DHT22;7188;56.070;12.698;2024-02-14T06:21:40;5.00;99.90
14210;DHT22;7188;56.070;12.698;2024-02-14T06:24:06;5.10;99.90
14210;DHT22;7188;56.070;12.698;2024-02-14T06:26:32;5.10;99.90
14210;DHT22;7188;56.070;12.698;2024-02-14T06:28:58;5.10;99.90
14210;DHT22;7188;56.070;12.698;2024-02-14T06:31:24;5.10;99.90
14210;DHT22;7188;56.070;12.698;2024-02-14T06:33:50;5.10;99.90
14210;DHT22;7188;56.070;12.698;2024-02-14T06:36:15;5.10;99.90
14210;DHT22;7188;56.070;12.698;2024-02-14T06:38:41;5.10;99.90
14210;DHT22;7188;56.070;12.698;2024-02-14T06:41:07;5.20;99.90
14210;DHT22;7188;56.070;12.698;2024-02-14T06:43:33;5.10;99.90
14210;DHT22;7188;56.070;12.698;2024-02-14T06:45:58;5.00;99.90
14210;DHT22;7188;56.070;12.698;2024-02-14T06:48:24;4.90;99.90
14210;DHT22;7188;56.070;12.698;2024-02-14T06:50:53;4.90;99.90
14210;DHT22;7188;56.070;12.698;2024-02-14T06:53:18;4.90;99.90
14210;DHT22;7188;56.070;12.698;2024-02-14T06:55:44;4.80;99.90
14210;DHT22;7188;56.070;12.698;2024-02-14T06:58:10;4.80;99.90
14210;DHT22;7188;56.070;12.698;2024-02-14T07:00:36;4.80;99.90
14210;DHT22;7188;56.070;12.698;2024-02-14T07:03:02;4.80;99.90
14210;DHT22;7188;56.070;12.698;2024-02-14T07:05:28;4.80;99.90
14210;DHT22;7188;56.070;12.698;2024-02-14T07:07:55;4.80;99.90
14210;DHT22;7188;56.070;12.698;2024-02-14T07:10:20;4.90;99.90
14210;DHT22;7188;56.070;12.698;2024-02-14T07:12:46;4.90;99.90
14210;DHT22;7188;56.070;12.698;2024-02-14T07:15:12;4.90;99.90
14210;DHT22;7188;56.070;12.698;2024-02-14T07:17:37;4.80;99.90
14210;DHT22;7188;56.070;12.698;2024-02-14T07:20:06;4.90;99.90
14210;DHT22;7188;56.070;12.698;2024-02-14T07:22:36;4.80;99.90
14210;DHT22;7188;56.070;12.698;2024-02-14T07:25:02;4.80;99.90
14210;DHT22;7188;56.070;12.698;2024-02-14T07:27:27;4.80;99.90
14210;DHT22;7188;56.070;12.698;2024-02-14T07:29:53;4.70;99.90
14210;DHT22;7188;56.070;12.698;2024-02-14T07:32:20;4.70;99.90
14210;DHT22;7188;56.070;12.698;2024-02-14T07:34:46;4.70;99.90
14210;DHT22;7188;56.070;12.698;2024-02-14T07:37:12;4.70;99.90
14210;DHT22;7188;56.070;12.698;2024-02-14T07:39:37;4.70;99.90
14210;DHT22;7188;56.070;12.698;2024-02-14T07:42:03;4.70;99.90
14210;DHT22;7188;56.070;12.698;2024-02-14T07:44:30;4.70;99.90
14210;DHT22;7188;56.070;12.698;2024-02-14T07:46:56;4.70;99.90
14210;DHT22;7188;56.070;12.698;2024-02-14T07:49:22;4.70;99.90
14210;DHT22;7188;56.070;12.698;2024-02-14T07:51:47;4.70;99.90
14210;DHT22;7188;56.070;12.698;2024-02-14T07:54:13;4.70;99.90
14210;DHT22;7188;56.070;12.698;2024-02-14T07:56:39;4.70;99.90
14210;DHT22;7188;56.070;12.698;2024-02-14T07:59:05;4.70;99.90
14210;DHT22;7188;56.070;12.698;2024-02-14T08:01:31;4.70;99.90
14210;DHT22;7188;56.070;12.698;2024-02-14T08:03:58;4.70;99.90
14210;DHT22;7188;56.070;12.698;2024-02-14T08:06:24;4.70;99.90
14210;DHT22;7188;56.070;12.698;2024-02-14T08:08:49;4.70;99.90
14210;DHT22;7188;56.070;12.698;2024-02-14T08:11:19;4.70;99.90
14210;DHT22;7188;56.070;12.698;2024-02-14T08:13:45;4.70;99.90
14210;DHT22;7188;56.070;12.698;2024-02-14T08:16:11;4.70;99.90
14210;DHT22;7188;56.070;12.698;2024-02-14T08:18:37;4.70;99.90
14210;DHT22;7188;56.070;12.698;2024-02-14T08:21:06;4.70;99.90
14210;DHT22;7188;56.070;12.698;2024-02-14T08:23:32;4.70;99.90
14210;DHT22;7188;56.070;12.698;2024-02-14T08:26:00;4.70;99.90
14210;DHT22;7188;56.070;12.698;2024-02-14T08:28:25;4.80;99.90
14210;DHT22;7188;56.070;12.698;2024-02-14T08:30:51;4.80;99.90
14210;DHT22;7188;56.070;12.698;2024-02-14T08:33:16;4.80;99.90
14210;DHT22;7188;56.070;12.698;2024-02-14T08:35:42;4.80;99.90
14210;DHT22;7188;56.070;12.698;2024-02-14T08:38:08;4.80;99.90
14210;DHT22;7188;56.070;12.698;2024-02-14T08:40:34;4.80;99.90
14210;DHT22;7188;56.070;12.698;2024-02-14T08:42:59;4.80;99.90
14210;DHT22;7188;56.070;12.698;2024-02-14T08:45:26;4.80;99.90
14210;DHT22;7188;56.070;12.698;2024-02-14T08:47:55;4.80;99.90
14210;DHT22;7188;56.070;12.698;2024-02-14T08:50:20;4.80;99.90
14210;DHT22;7188;56.070;12.698;2024-02-14T08:52:46;4.80;99.90
14210;DHT22;7188;56.070;12.698;2024-02-14T08:55:12;4.80;99.90
14210;DHT22;7188;56.070;12.698;2024-02-14T08:57:40;4.80;99.90
14210;DHT22;7188;56.070;12.698;2024-02-14T09:00:07;4.70;99.90
14210;DHT22;7188;56.070;12.698;2024-02-14T09:02:33;4.80;99.90
14210;DHT22;7188;56.070;12.698;2024-02-14T09:05:00;4.80;99.90
14210;DHT22;7188;56.070;12.698;2024-02-14T09:07:27;4.90;99.90
14210;DHT22;7188;56.070;12.698;2024-02-14T09:09:52;4.90;99.90
14210;DHT22;7188;56.070;12.698;2024-02-14T09:12:18;5.10;99.90
14210;DHT22;7188;56.070;12.698;2024-02-14T09:14:43;5.10;99.90
14210;DHT22;7188;56.070;12.698;2024-02-14T09:17:09;5.10;99.90
14210;DHT22;7188;56.070;12.698;2024-02-14T09:19:35;5.10;99.90
14210;DHT22;7188;56.070;12.698;2024-02-14T09:22:02;5.00;99.90
14210;DHT22;7188;56.070;12.698;2024-02-14T09:24:32;5.00;99.90
14210;DHT22;7188;56.070;12.698;2024-02-14T09:26:57;5.00;99.90
14210;DHT22;7188;56.070;12.698;2024-02-14T09:29:24;5.00;99.90
14210;DHT22;7188;56.070;12.698;2024-02-14T09:31:50;5.00;99.90
14210;DHT22;7188;56.070;12.698;2024-02-14T09:34:16;5.00;99.90
14210;DHT22;7188;56.070;12.698;2024-02-14T09:36:45;5.00;99.90
14210;DHT22;7188;56.070;12.698;2024-02-14T09:39:14;5.10;99.90
14210;DHT22;7188;56.070;12.698;2024-02-14T09:41:44;5.10;99.90
14210;DHT22;7188;56.070;12.698;2024-02-14T09:44:12;5.20;99.90
14210;DHT22;7188;56.070;12.698;2024-02-14T09:46:38;5.10;99.90
14210;DHT22;7188;56.070;12.698;2024-02-14T09:49:05;5.20;99.90
14210;DHT22;7188;56.070;12.698;2024-02-14T09:51:31;5.20;99.90
14210;DHT22;7188;56.070;12.698;2024-02-14T09:54:00;5.20;99.90
14210;DHT22;7188;56.070;12.698;2024-02-14T09:56:26;5.20;99.90
14210;DHT22;7188;56.070;12.698;2024-02-14T09:58:53;5.20;99.90
14210;DHT22;7188;56.070;12.698;2024-02-14T10:01:25;5.30;99.90
14210;DHT22;7188;56.070;12.698;2024-02-14T10:03:53;5.20;99.90
14210;DHT22;7188;56.070;12.698;2024-02-14T10:06:19;5.30;99.90
14210;DHT22;7188;56.070;12.698;2024-02-14T10:08:47;5.30;99.90
14210;DHT22;7188;56.070;12.698;2024-02-14T10:11:13;5.40;99.90
14210;DHT22;7188;56.070;12.698;2024-02-14T10:13:49;5.40;99.90
14210;DHT22;7188;56.070;12.698;2024-02-14T10:16:19;5.40;99.90
14210;DHT22;7188;56.070;12.698;2024-02-14T10:18:48;5.40;99.90
14210;DHT22;7188;56.070;12.698;2024-02-14T10:21:16;5.30;99.90
14210;DHT22;7188;56.070;12.698;2024-02-14T10:23:45;5.40;99.90
14210;DHT22;7188;56.070;12.698;2024-02-14T10:26:13;5.40;99.90
14210;DHT22;7188;56.070;12.698;2024-02-14T10:28:43;5.40;99.90
14210;DHT22;7188;56.070;12.698;2024-02-14T10:31:10;5.50;99.90
14210;DHT22;7188;56.070;12.698;2024-02-14T10:33:36;5.50;99.90
14210;DHT22;7188;56.070;12.698;2024-02-14T10:36:02;5.60;99.90
14210;DHT22;7188;56.070;12.698;2024-02-14T10:38:32;5.60;99.90
14210;DHT22;7188;56.070;12.698;2024-02-14T10:41:02;5.70;99.90
14210;DHT22;7188;56.070;12.698;2024-02-14T10:43:28;5.70;99.90
14210;DHT22;7188;56.070;12.698;2024-02-14T10:45:54;5.80;99.90
14210;DHT22;7188;56.070;12.698;2024-02-14T10:48:22;5.90;99.90
14210;DHT22;7188;56.070;12.698;2024-02-14T10:50:54;5.90;99.90
14210;DHT22;7188;56.070;12.698;2024-02-14T10:53:23;6.10;99.90
14210;DHT22;7188;56.070;12.698;2024-02-14T10:55:49;6.20;99.90
14210;DHT22;7188;56.070;12.698;2024-02-14T10:58:17;6.20;99.90
14210;DHT22;7188;56.070;12.698;2024-02-14T11:00:46;6.20;99.90
14210;DHT22;7188;56.070;12.698;2024-02-14T11:03:12;6.30;99.90
14210;DHT22;7188;56.070;12.698;2024-02-14T11:05:47;6.40;99.90
14210;DHT22;7188;56.070;12.698;2024-02-14T11:08:20;6.50;99.90
14210;DHT22;7188;56.070;12.698;2024-02-14T11:10:58;6.60;99.90
14210;DHT22;7188;56.070;12.698;2024-02-14T11:13:30;6.60;99.90
14210;DHT22;7188;56.070;12.698;2024-02-14T11:16:02;6.60;99.90
14210;DHT22;7188;56.070;12.698;2024-02-14T11:18:30;6.50;99.90
14210;DHT22;7188;56.070;12.698;2024-02-14T11:20:56;6.40;99.90
14210;DHT22;7188;56.070;12.698;2024-02-14T11:23:25;6.40;99.90
14210;DHT22;7188;56.070;12.698;2024-02-14T11:26:14;6.40;99.90
14210;DHT22;7188;56.070;12.698;2024-02-14T11:28:40;6.40;99.90
14210;DHT22;7188;56.070;12.698;2024-02-14T11:31:07;6.40;99.90
14210;DHT22;7188;56.070;12.698;2024-02-14T11:33:35;6.40;99.90
14210;DHT22;7188;56.070;12.698;2024-02-14T11:36:08;6.50;99.90
14210;DHT22;7188;56.070;12.698;2024-02-14T11:38:35;6.50;99.90
14210;DHT22;7188;56.070;12.698;2024-02-14T11:41:02;6.60;99.90
14210;DHT22;7188;56.070;12.698;2024-02-14T11:43:29;6.60;99.90
14210;DHT22;7188;56.070;12.698;2024-02-14T11:45:54;6.60;99.90
14210;DHT22;7188;56.070;12.698;2024-02-14T11:48:21;6.60;99.90
14210;DHT22;7188;56.070;12.698;2024-02-14T11:50:49;6.60;99.90
14210;DHT22;7188;56.070;12.698;2024-02-14T11:53:15;6.70;99.90
14210;DHT22;7188;56.070;12.698;2024-02-14T11:55:47;6.60;99.90
14210;DHT22;7188;56.070;12.698;2024-02-14T11:58:16;6.70;99.90
14210;DHT22;7188;56.070;12.698;2024-02-14T12:00:44;6.80;99.90
14210;DHT22;7188;56.070;12.698;2024-02-14T12:03:16;6.70;99.90
14210;DHT22;7188;56.070;12.698;2024-02-14T12:05:43;6.60;99.90
14210;DHT22;7188;56.070;12.698;2024-02-14T12:08:09;6.60;99.90
14210;DHT22;7188;56.070;12.698;2024-02-14T12:10:36;6.60;99.90
14210;DHT22;7188;56.070;12.698;2024-02-14T12:13:17;6.60;99.90
14210;DHT22;7188;56.070;12.698;2024-02-14T12:15:50;6.60;99.90
14210;DHT22;7188;56.070;12.698;2024-02-14T12:18:18;6.60;99.90
14210;DHT22;7188;56.070;12.698;2024-02-14T12:20:44;6.50;99.90
14210;DHT22;7188;56.070;12.698;2024-02-14T12:23:17;6.60;99.90
14210;DHT22;7188;56.070;12.698;2024-02-14T12:25:43;6.60;99.90
14210;DHT22;7188;56.070;12.698;2024-02-14T12:28:16;6.60;99.90
14210;DHT22;7188;56.070;12.698;2024-02-14T12:30:46;6.50;99.90
14210;DHT22;7188;56.070;12.698;2024-02-14T12:33:13;6.50;99.90
14210;DHT22;7188;56.070;12.698;2024-02-14T12:35:46;6.50;99.90
14210;DHT22;7188;56.070;12.698;2024-02-14T12:38:13;6.50;99.90
14210;DHT22;7188;56.070;12.698;2024-02-14T12:40:40;6.40;99.90
14210;DHT22;7188;56.070;12.698;2024-02-14T12:43:13;6.40;99.90
14210;DHT22;7188;56.070;12.698;2024-02-14T12:45:40;6.40;99.90
14210;DHT22;7188;56.070;12.698;2024-02-14T12:48:07;6.50;99.90
14210;DHT22;7188;56.070;12.698;2024-02-14T12:50:34;6.40;99.90
14210;DHT22;7188;56.070;12.698;2024-02-14T12:53:00;6.40;99.90
14210;DHT22;7188;56.070;12.698;2024-02-14T12:55:26;6.50;99.90
14210;DHT22;7188;56.070;12.698;2024-02-14T12:57:57;6.50;99.90
14210;DHT22;7188;56.070;12.698;2024-02-14T13:00:23;6.50;99.90
14210;DHT22;7188;56.070;12.698;2024-02-14T13:02:49;6.60;99.90
14210;DHT22;7188;56.070;12.698;2024-02-14T13:05:15;6.60;99.90
14210;DHT22;7188;56.070;12.698;2024-02-14T13:07:44;6.60;99.90
14210;DHT22;7188;56.070;12.698;2024-02-14T13:10:10;6.60;99.90
14210;DHT22;7188;56.070;12.698;2024-02-14T13:12:56;6.60;99.90
14210;DHT22;7188;56.070;12.698;2024-02-14T13:15:22;6.50;99.90
14210;DHT22;7188;56.070;12.698;2024-02-14T13:17:48;6.60;99.90
14210;DHT22;7188;56.070;12.698;2024-02-14T13:20:14;6.50;99.90
14210;DHT22;7188;56.070;12.698;2024-02-14T13:22:41;6.60;99.90
14210;DHT22;7188;56.070;12.698;2024-02-14T13:25:08;6.60;99.90
14210;DHT22;7188;56.070;12.698;2024-02-14T13:27:34;6.60;99.90
14210;DHT22;7188;56.070;12.698;2024-02-14T13:30:01;6.50;99.90
14210;DHT22;7188;56.070;12.698;2024-02-14T13:32:27;6.50;99.90
14210;DHT22;7188;56.070;12.698;2024-02-14T13:34:52;6.40;99.90
14210;DHT22;7188;56.070;12.698;2024-02-14T13:37:18;6.40;99.90
14210;DHT22;7188;56.070;12.698;2024-02-14T13:39:45;6.30;99.90
14210;DHT22;7188;56.070;12.698;2024-02-14T13:42:10;6.30;99.90
14210;DHT22;7188;56.070;12.698;2024-02-14T13:44:36;6.30;99.90
14210;DHT22;7188;56.070;12.698;2024-02-14T13:47:02;6.20;99.90
14210;DHT22;7188;56.070;12.698;2024-02-14T13:49:28;6.20;99.90
14210;DHT22;7188;56.070;12.698;2024-02-14T13:51:54;6.30;99.90
14210;DHT22;7188;56.070;12.698;2024-02-14T13:54:20;6.20;99.90
14210;DHT22;7188;56.070;12.698;2024-02-14T13:56:46;6.20;99.90
14210;DHT22;7188;56.070;12.698;2024-02-14T13:59:14;6.30;99.90
14210;DHT22;7188;56.070;12.698;2024-02-14T14:01:40;6.20;99.90
14210;DHT22;7188;56.070;12.698;2024-02-14T14:04:06;6.30;99.90
14210;DHT22;7188;56.070;12.698;2024-02-14T14:06:32;6.20;99.90
14210;DHT22;7188;56.070;12.698;2024-02-14T14:08:58;6.20;99.90
14210;DHT22;7188;56.070;12.698;2024-02-14T14:11:24;6.20;99.90
14210;DHT22;7188;56.070;12.698;2024-02-14T14:13:50;6.20;99.90
14210;DHT22;7188;56.070;12.698;2024-02-14T14:16:15;6.20;99.90
14210;DHT22;7188;56.070;12.698;2024-02-14T14:18:41;6.20;99.90
14210;DHT22;7188;56.070;12.698;2024-02-14T14:21:07;6.10;99.90
14210;DHT22;7188;56.070;12.698;2024-02-14T14:23:32;6.10;99.90
14210;DHT22;7188;56.070;12.698;2024-02-14T14:25:59;6.10;99.90
14210;DHT22;7188;56.070;12.698;2024-02-14T14:28:25;6.10;99.90
14210;DHT22;7188;56.070;12.698;2024-02-14T14:30:51;6.10;99.90
14210;DHT22;7188;56.070;12.698;2024-02-14T14:33:50;6.10;99.90
14210;DHT22;7188;56.070;12.698;2024-02-14T14:36:49;6.10;99.90
14210;DHT22;7188;56.070;12.698;2024-02-14T14:39:15;6.10;99.90
14210;DHT22;7188;56.070;12.698;2024-02-14T14:41:41;6.10;99.90
14210;DHT22;7188;56.070;12.698;2024-02-14T14:44:07;6.10;99.90
14210;DHT22;7188;56.070;12.698;2024-02-14T14:46:34;6.00;99.90
14210;DHT22;7188;56.070;12.698;2024-02-14T14:49:00;6.00;99.90
14210;DHT22;7188;56.070;12.698;2024-02-14T14:51:26;6.00;99.90
14210;DHT22;7188;56.070;12.698;2024-02-14T14:53:52;6.00;99.90
14210;DHT22;7188;56.070;12.698;2024-02-14T14:56:18;5.90;99.90
14210;DHT22;7188;56.070;12.698;2024-02-14T14:58:43;5.90;99.90
14210;DHT22;7188;56.070;12.698;2024-02-14T15:01:09;6.00;99.90
14210;DHT22;7188;56.070;12.698;2024-02-14T15:03:35;6.00;99.90
14210;DHT22;7188;56.070;12.698;2024-02-14T15:06:00;5.90;99.90
14210;DHT22;7188;56.070;12.698;2024-02-14T15:08:26;5.90;99.90
14210;DHT22;7188;56.070;12.698;2024-02-14T15:10:54;5.80;99.90
14210;DHT22;7188;56.070;12.698;2024-02-14T15:13:21;5.90;99.90
14210;DHT22;7188;56.070;12.698;2024-02-14T15:15:47;5.80;99.90
14210;DHT22;7188;56.070;12.698;2024-02-14T15:18:12;5.90;99.90
14210;DHT22;7188;56.070;12.698;2024-02-14T15:20:39;5.90;99.90
14210;DHT22;7188;56.070;12.698;2024-02-14T15:23:05;6.10;99.90
14210;DHT22;7188;56.070;12.698;2024-02-14T15:25:33;6.00;99.90
14210;DHT22;7188;56.070;12.698;2024-02-14T15:27:58;6.00;99.90
14210;DHT22;7188;56.070;12.698;2024-02-14T15:30:25;6.00;99.90
14210;DHT22;7188;56.070;12.698;2024-02-14T15:33:10;5.90;99.90
14210;DHT22;7188;56.070;12.698;2024-02-14T15:35:52;5.90;99.90
14210;DHT22;7188;56.070;12.698;2024-02-14T15:38:18;5.90;99.90
14210;DHT22;7188;56.070;12.698;2024-02-14T15:40:46;5.90;99.90
14210;DHT22;7188;56.070;12.698;2024-02-14T15:43:12;5.90;99.90